Time,TemperatureF,DewpointF,PressureIn,WindDirection,WindDirectionDegrees,WindSpeedMPH,WindSpeedGustMPH,Humidity,HourlyPrecipIn,Conditions,Clouds,dailyrainin,SoftwareType,DateUTC
2013-01-19 00:04:00,44.7,36.2,30.34,SE,144,7.0,9.0,72,0.00,,,0.00,Wunderground v.1.15,2013-01-19 06:04:00,
2013-01-19 00:10:00,44.6,36.5,30.34,South,176,7.0,9.0,73,0.00,,,0.00,Wunderground v.1.15,2013-01-19 06:10:00,
2013-01-19 00:16:00,44.6,36.8,30.34,SSE,150,7.0,10.0,74,0.00,,,0.00,Wunderground v.1.15,2013-01-19 06:16:00,
2013-01-19 00:22:00,44.5,37.1,30.34,SSE,159,7.0,9.0,75,0.00,,,0.00,Wunderground v.1.15,2013-01-19 06:22:00,
2013-01-19 00:28:00,44.2,37.1,30.34,South,180,7.0,9.0,76,0.00,,,0.00,Wunderground v.1.15,2013-01-19 06:28:00,
2013-01-19 00:34:00,43.9,37.2,30.34,SE,142,6.0,7.0,77,0.00,,,0.00,Wunderground v.1.15,2013-01-19 06:34:00,
2013-01-19 00:40:00,43.8,37.4,30.34,SE,145,6.0,6.0,78,0.00,,,0.00,Wunderground v.1.15,2013-01-19 06:40:00,
2013-01-19 00:46:00,43.8,37.7,30.34,South,174,6.0,7.0,79,0.00,,,0.00,Wunderground v.1.15,2013-01-19 06:46:00,
2013-01-19 00:52:00,44.0,38.2,30.34,South,184,7.0,7.0,80,0.00,,,0.00,Wunderground v.1.15,2013-01-19 06:52:00,
2013-01-19 00:58:00,43.9,38.4,30.34,South,180,7.0,8.0,81,0.00,,,0.00,Wunderground v.1.15,2013-01-19 06:58:00,
2013-01-19 01:04:00,43.6,38.5,30.34,SSE,153,6.0,7.0,82,0.00,,,0.00,Wunderground v.1.15,2013-01-19 07:04:00,
2013-01-19 01:10:00,43.4,38.3,30.34,SSE,150,5.0,6.0,82,0.00,,,0.00,Wunderground v.1.15,2013-01-19 07:10:00,
2013-01-19 01:16:00,43.3,38.5,30.34,South,178,5.0,8.0,83,0.00,,,0.00,Wunderground v.1.15,2013-01-19 07:16:00,
2013-01-19 01:22:00,43.3,38.8,30.33,SSE,151,4.0,4.0,84,0.00,,,0.00,Wunderground v.1.15,2013-01-19 07:22:00,
2013-01-19 01:28:00,43.1,38.6,30.33,SSE,148,4.0,5.0,84,0.00,,,0.00,Wunderground v.1.15,2013-01-19 07:28:00,
2013-01-19 01:34:00,42.9,38.4,30.33,SSE,153,4.0,4.0,84,0.00,,,0.00,Wunderground v.1.15,2013-01-19 07:34:00,
2013-01-19 01:40:00,42.8,38.6,30.33,South,170,4.0,4.0,85,0.00,,,0.00,Wunderground v.1.15,2013-01-19 07:40:00,
2013-01-19 01:46:00,42.6,38.7,30.33,SSE,158,3.0,4.0,86,0.00,,,0.00,Wunderground v.1.15,2013-01-19 07:46:00,
2013-01-19 01:52:00,42.5,38.6,30.33,South,173,4.0,4.0,86,0.00,,,0.00,Wunderground v.1.15,2013-01-19 07:52:00,
2013-01-19 01:58:00,42.4,38.5,30.33,SSE,166,4.0,4.0,86,0.00,,,0.00,Wunderground v.1.15,2013-01-19 07:58:00,
2013-01-19 02:04:00,42.3,38.4,30.33,SSW,204,4.0,4.0,86,0.00,,,0.00,Wunderground v.1.15,2013-01-19 08:04:00,
2013-01-19 02:10:00,42.0,38.4,30.33,South,172,4.0,5.0,87,0.00,,,0.00,Wunderground v.1.15,2013-01-19 08:10:00,
2013-01-19 02:16:00,41.9,38.6,30.33,SSE,154,4.0,5.0,88,0.00,,,0.00,Wunderground v.1.15,2013-01-19 08:16:00,
2013-01-19 02:22:00,42.0,38.7,30.32,SSE,158,5.0,5.0,88,0.00,,,0.00,Wunderground v.1.15,2013-01-19 08:22:00,
2013-01-19 02:28:00,42.3,39.0,30.32,SSE,155,5.0,6.0,88,0.00,,,0.00,Wunderground v.1.15,2013-01-19 08:28:00,
2013-01-19 02:34:00,42.4,39.1,30.32,SSE,155,5.0,5.0,88,0.00,,,0.00,Wunderground v.1.15,2013-01-19 08:34:00,
2013-01-19 02:40:00,42.3,39.0,30.32,SE,141,5.0,5.0,88,0.00,,,0.00,Wunderground v.1.15,2013-01-19 08:40:00,
2013-01-19 02:46:00,42.2,38.9,30.32,SE,134,5.0,6.0,88,0.00,,,0.00,Wunderground v.1.15,2013-01-19 08:46:00,
2013-01-19 02:52:00,42.2,39.2,30.31,SSE,153,5.0,7.0,89,0.00,,,0.00,Wunderground v.1.15,2013-01-19 08:52:00,
2013-01-19 02:58:00,42.1,39.1,30.31,SE,141,6.0,7.0,89,0.00,,,0.00,Wunderground v.1.15,2013-01-19 08:58:00,
2013-01-19 03:04:00,42.1,39.1,30.31,SSE,168,6.0,6.0,89,0.00,,,0.00,Wunderground v.1.15,2013-01-19 09:04:00,
2013-01-19 03:10:00,42.1,39.1,30.31,SE,146,5.0,5.0,89,0.00,,,0.00,Wunderground v.1.15,2013-01-19 09:10:00,
2013-01-19 03:16:00,42.1,39.1,30.30,South,178,6.0,6.0,89,0.00,,,0.00,Wunderground v.1.15,2013-01-19 09:16:00,
2013-01-19 03:22:00,42.1,39.4,30.30,SE,133,6.0,9.0,90,0.00,,,0.00,Wunderground v.1.15,2013-01-19 09:22:00,
2013-01-19 03:28:00,42.3,39.6,30.30,SE,141,7.0,10.0,90,0.00,,,0.00,Wunderground v.1.15,2013-01-19 09:28:00,
2013-01-19 03:34:00,42.5,39.8,30.29,South,182,8.0,8.0,90,0.00,,,0.00,Wunderground v.1.15,2013-01-19 09:34:00,
2013-01-19 03:40:00,42.6,39.9,30.29,SE,141,8.0,8.0,90,0.00,,,0.00,Wunderground v.1.15,2013-01-19 09:40:00,
2013-01-19 03:46:00,42.8,40.1,30.29,SSE,155,8.0,11.0,90,0.00,,,0.00,Wunderground v.1.15,2013-01-19 09:46:00,
2013-01-19 03:52:00,42.9,40.2,30.28,SSE,158,8.0,10.0,90,0.00,,,0.00,Wunderground v.1.15,2013-01-19 09:52:00,
2013-01-19 03:58:00,42.8,40.1,30.28,SE,138,8.0,10.0,90,0.00,,,0.00,Wunderground v.1.15,2013-01-19 09:58:00,
2013-01-19 04:04:00,42.9,40.5,30.28,SSE,159,9.0,9.0,91,0.00,,,0.00,Wunderground v.1.15,2013-01-19 10:04:00,
2013-01-19 04:10:00,43.0,40.6,30.27,SE,136,9.0,14.0,91,0.00,,,0.00,Wunderground v.1.15,2013-01-19 10:10:00,
2013-01-19 04:16:00,42.9,40.2,30.27,SSW,212,10.0,14.0,90,0.00,,,0.00,Wunderground v.1.15,2013-01-19 10:16:00,
2013-01-19 04:22:00,42.9,40.5,30.27,SSE,160,9.0,10.0,91,0.00,,,0.00,Wunderground v.1.15,2013-01-19 10:22:00,
2013-01-19 04:28:00,42.9,40.5,30.28,South,173,8.0,10.0,91,0.00,,,0.00,Wunderground v.1.15,2013-01-19 10:28:00,
2013-01-19 04:34:00,42.9,40.5,30.27,SSE,163,8.0,8.0,91,0.00,,,0.00,Wunderground v.1.15,2013-01-19 10:34:00,
2013-01-19 04:40:00,43.0,40.8,30.27,SSE,150,7.0,7.0,92,0.00,,,0.00,Wunderground v.1.15,2013-01-19 10:40:00,
2013-01-19 04:46:00,43.2,40.8,30.27,SSE,150,8.0,9.0,91,0.00,,,0.00,Wunderground v.1.15,2013-01-19 10:46:00,
2013-01-19 04:52:00,43.3,41.1,30.26,South,181,8.0,8.0,92,0.00,,,0.00,Wunderground v.1.15,2013-01-19 10:52:00,
2013-01-19 04:58:00,43.3,41.1,30.27,SE,134,8.0,11.0,92,0.00,,,0.00,Wunderground v.1.15,2013-01-19 10:58:00,
2013-01-19 05:04:00,43.3,41.1,30.26,SSE,165,9.0,12.0,92,0.00,,,0.00,Wunderground v.1.15,2013-01-19 11:04:00,
2013-01-19 05:10:00,43.3,41.1,30.26,SSE,165,9.0,9.0,92,0.00,,,0.00,Wunderground v.1.15,2013-01-19 11:10:00,
2013-01-19 06:48:00,41.9,40.6,30.28,South,179,5.0,6.0,95,0.00,,,0.00,Wunderground v.1.15,2013-01-19 12:48:00,
2013-01-19 06:52:00,41.6,40.3,30.28,SSE,160,4.0,4.0,95,0.00,,,0.00,Wunderground v.1.15,2013-01-19 12:52:00,
2013-01-19 06:54:00,41.5,40.2,30.28,South,184,4.0,4.0,95,0.00,,,0.00,Wunderground v.1.15,2013-01-19 12:54:00,
2013-01-19 06:56:00,41.4,40.1,30.29,SSE,150,3.0,12.0,95,0.00,,,0.00,Wunderground v.1.15,2013-01-19 12:56:00,
2013-01-19 07:02:00,41.1,39.8,30.29,SSE,163,4.0,12.0,95,0.00,,,0.00,Wunderground v.1.15,2013-01-19 13:02:00,
2013-01-19 07:08:00,40.7,39.6,30.29,South,176,4.0,12.0,96,0.00,,,0.00,Wunderground v.1.15,2013-01-19 13:08:00,
2013-01-19 07:14:00,40.7,39.6,30.29,SSE,151,5.0,12.0,96,0.00,,,0.00,Wunderground v.1.15,2013-01-19 13:14:00,
2013-01-19 07:20:00,40.8,40.0,30.29,SSW,210,5.0,5.0,97,0.00,,,0.00,Wunderground v.1.15,2013-01-19 13:20:00,
2013-01-19 07:26:00,41.1,40.3,30.29,SSE,162,5.0,12.0,97,0.00,,,0.00,Wunderground v.1.15,2013-01-19 13:26:00,
2013-01-19 07:32:00,41.1,40.3,30.29,SSE,155,6.0,12.0,97,0.00,,,0.00,Wunderground v.1.15,2013-01-19 13:32:00,
2013-01-19 07:38:00,41.5,40.7,30.29,SE,136,7.0,12.0,97,0.00,,,0.00,Wunderground v.1.15,2013-01-19 13:38:00,
2013-01-19 07:44:00,41.8,41.0,30.29,SSE,163,8.0,12.0,97,0.00,,,0.00,Wunderground v.1.15,2013-01-19 13:44:00,
2013-01-19 07:50:00,42.2,41.7,30.29,SSE,148,9.0,9.0,98,0.00,,,0.00,Wunderground v.1.15,2013-01-19 13:50:00,
2013-01-19 07:56:00,42.5,42.0,30.29,SW,217,9.0,12.0,98,0.00,,,0.00,Wunderground v.1.15,2013-01-19 13:56:00,
2013-01-19 08:02:00,42.7,42.2,30.29,SSE,158,9.0,12.0,98,0.00,,,0.00,Wunderground v.1.15,2013-01-19 14:02:00,
2013-01-19 08:08:00,42.8,42.3,30.29,South,169,8.0,12.0,98,0.00,,,0.00,Wunderground v.1.15,2013-01-19 14:08:00,
2013-01-19 08:14:00,42.9,42.4,30.29,SSE,167,8.0,12.0,98,0.00,,,0.00,Wunderground v.1.15,2013-01-19 14:14:00,
2013-01-19 08:20:00,42.9,42.4,30.29,SE,138,8.0,12.0,98,0.00,,,0.00,Wunderground v.1.15,2013-01-19 14:20:00,
2013-01-19 08:26:00,43.1,42.6,30.30,SSE,163,8.0,12.0,98,0.00,,,0.00,Wunderground v.1.15,2013-01-19 14:26:00,
2013-01-19 08:32:00,43.3,42.8,30.30,SE,145,7.0,10.0,98,0.00,,,0.00,Wunderground v.1.15,2013-01-19 14:32:00,
2013-01-19 08:38:00,43.6,43.1,30.30,SSE,151,7.0,12.0,98,0.00,,,0.00,Wunderground v.1.15,2013-01-19 14:38:00,
2013-01-19 08:44:00,44.1,43.6,30.30,SSW,199,7.0,12.0,98,0.00,,,0.00,Wunderground v.1.15,2013-01-19 14:44:00,
2013-01-19 08:50:00,44.8,44.3,30.30,SSW,207,8.0,8.0,98,0.00,,,0.00,Wunderground v.1.15,2013-01-19 14:50:00,
2013-01-19 08:56:00,45.4,44.6,30.30,SSW,210,8.0,12.0,97,0.00,,,0.00,Wunderground v.1.15,2013-01-19 14:56:00,
2013-01-19 09:02:00,45.9,44.5,30.31,SSW,207,9.0,12.0,95,0.00,,,0.00,Wunderground v.1.15,2013-01-19 15:02:00,
2013-01-19 09:08:00,46.2,44.6,30.31,South,169,9.0,12.0,94,0.00,,,0.00,Wunderground v.1.15,2013-01-19 15:08:00,
2013-01-19 09:14:00,46.7,44.8,30.31,SSE,159,9.0,12.0,93,0.00,,,0.00,Wunderground v.1.15,2013-01-19 15:14:00,
2013-01-19 09:20:00,47.3,45.1,30.32,South,170,10.0,12.0,92,0.00,,,0.00,Wunderground v.1.15,2013-01-19 15:20:00,
2013-01-19 09:26:00,47.9,45.4,30.32,SSW,200,10.0,12.0,91,0.00,,,0.00,Wunderground v.1.15,2013-01-19 15:26:00,
2013-01-19 09:32:00,48.4,45.6,30.32,SE,142,10.0,12.0,90,0.00,,,0.00,Wunderground v.1.15,2013-01-19 15:32:00,
2013-01-19 09:38:00,48.7,45.3,30.32,SSE,160,11.0,13.0,88,0.00,,,0.00,Wunderground v.1.15,2013-01-19 15:38:00,
2013-01-19 09:44:00,49.5,46.1,30.33,SSE,162,10.0,12.0,88,0.00,,,0.00,Wunderground v.1.15,2013-01-19 15:44:00,
2013-01-19 09:50:00,50.2,46.2,30.32,South,175,11.0,12.0,86,0.00,,,0.00,Wunderground v.1.15,2013-01-19 15:50:00,
2013-01-19 09:56:00,51.0,46.3,30.33,SSE,148,11.0,15.0,84,0.00,,,0.00,Wunderground v.1.15,2013-01-19 15:56:00,
2013-01-19 10:02:00,51.8,46.8,30.33,SSW,192,11.0,15.0,83,0.00,,,0.00,Wunderground v.1.15,2013-01-19 16:02:00,
2013-01-19 10:08:00,51.9,46.3,30.32,SE,145,11.0,15.0,81,0.00,,,0.00,Wunderground v.1.15,2013-01-19 16:08:00,
2013-01-19 10:14:00,52.5,46.8,30.32,SSE,148,10.0,12.0,81,0.00,,,0.00,Wunderground v.1.15,2013-01-19 16:14:00,
2013-01-19 10:20:00,53.2,46.9,30.32,SSE,167,11.0,12.0,79,0.00,,,0.00,Wunderground v.1.15,2013-01-19 16:20:00,
2013-01-19 10:26:00,53.2,46.5,30.33,South,175,12.0,17.0,78,0.00,,,0.00,Wunderground v.1.15,2013-01-19 16:26:00,
2013-01-19 10:32:00,53.7,47.0,30.33,South,170,12.0,12.0,78,0.00,,,0.00,Wunderground v.1.15,2013-01-19 16:32:00,
2013-01-19 10:38:00,54.2,47.1,30.33,SSE,165,12.0,16.0,77,0.00,,,0.00,Wunderground v.1.15,2013-01-19 16:38:00,
2013-01-19 10:44:00,54.4,47.0,30.33,SSE,150,11.0,18.0,76,0.00,,,0.00,Wunderground v.1.15,2013-01-19 16:44:00,
2013-01-19 10:50:00,54.2,46.8,30.32,SSE,160,12.0,12.0,76,0.00,,,0.00,Wunderground v.1.15,2013-01-19 16:50:00,
2013-01-19 10:56:00,54.8,47.0,30.32,South,179,10.0,12.0,75,0.00,,,0.00,Wunderground v.1.15,2013-01-19 16:56:00,
2013-01-19 11:02:00,54.8,46.3,30.32,SSW,195,10.0,18.0,73,0.00,,,0.00,Wunderground v.1.15,2013-01-19 17:02:00,
2013-01-19 11:08:00,54.7,46.2,30.32,SSW,195,11.0,18.0,73,0.00,,,0.00,Wunderground v.1.15,2013-01-19 17:08:00,
2013-01-19 11:16:00,54.9,46.0,30.31,South,190,12.0,17.0,72,0.00,,,0.00,Wunderground v.1.15,2013-01-19 17:16:00,
2013-01-19 11:22:00,55.6,46.0,30.31,South,190,13.0,14.0,70,0.00,,,0.00,Wunderground v.1.15,2013-01-19 17:22:00,
2013-01-19 11:28:00,55.9,46.6,30.31,SSW,194,12.0,14.0,71,0.00,,,0.00,Wunderground v.1.15,2013-01-19 17:28:00,
2013-01-19 11:34:00,56.6,46.5,30.30,SSE,158,11.0,13.0,69,0.00,,,0.00,Wunderground v.1.15,2013-01-19 17:34:00,
2013-01-19 11:40:00,57.1,46.6,30.30,ESE,107,11.0,14.0,68,0.00,,,0.00,Wunderground v.1.15,2013-01-19 17:40:00,
2013-01-19 11:46:00,57.9,46.6,30.30,South,179,11.0,14.0,66,0.00,,,0.00,Wunderground v.1.15,2013-01-19 17:46:00,
2013-01-19 11:52:00,58.1,46.4,30.30,South,191,12.0,14.0,65,0.00,,,0.00,Wunderground v.1.15,2013-01-19 17:52:00,
2013-01-19 11:58:00,58.4,46.3,30.29,SSE,155,13.0,14.0,64,0.00,,,0.00,Wunderground v.1.15,2013-01-19 17:58:00,
2013-01-19 12:04:00,58.8,46.2,30.29,SSW,201,12.0,14.0,63,0.00,,,0.00,Wunderground v.1.15,2013-01-19 18:04:00,
2013-01-19 12:10:00,58.5,46.4,30.29,South,179,10.0,12.0,64,0.00,,,0.00,Wunderground v.1.15,2013-01-19 18:10:00,
2013-01-19 12:16:00,58.4,46.3,30.28,SSW,194,10.0,12.0,64,0.00,,,0.00,Wunderground v.1.15,2013-01-19 18:16:00,
2013-01-19 12:22:00,58.9,46.3,30.27,South,184,11.0,12.0,63,0.00,,,0.00,Wunderground v.1.15,2013-01-19 18:22:00,
2013-01-19 12:28:00,59.0,46.0,30.27,SSE,163,11.0,14.0,62,0.00,,,0.00,Wunderground v.1.15,2013-01-19 18:28:00,
2013-01-19 12:34:00,58.8,45.8,30.26,South,191,12.0,12.0,62,0.00,,,0.00,Wunderground v.1.15,2013-01-19 18:34:00,
2013-01-19 12:40:00,59.2,46.2,30.26,WSW,238,12.0,14.0,62,0.00,,,0.00,Wunderground v.1.15,2013-01-19 18:40:00,
2013-01-19 12:46:00,59.7,45.8,30.25,South,176,10.0,14.0,60,0.00,,,0.00,Wunderground v.1.15,2013-01-19 18:46:00,
2013-01-19 12:52:00,60.7,44.9,30.25,South,179,10.0,18.0,56,0.00,,,0.00,Wunderground v.1.15,2013-01-19 18:52:00,
2013-01-19 12:58:00,61.2,44.9,30.24,SSE,163,11.0,18.0,55,0.00,,,0.00,Wunderground v.1.15,2013-01-19 18:58:00,
2013-01-19 13:04:00,61.5,45.7,30.24,SE,146,10.0,12.0,56,0.00,,,0.00,Wunderground v.1.15,2013-01-19 19:04:00,
2013-01-19 13:10:00,62.4,46.0,30.23,SW,226,9.0,12.0,55,0.00,,,0.00,Wunderground v.1.15,2013-01-19 19:10:00,
2013-01-19 13:16:00,62.0,45.2,30.23,SW,219,10.0,13.0,54,0.00,,,0.00,Wunderground v.1.15,2013-01-19 19:16:00,
2013-01-19 13:26:00,62.4,45.0,30.22,SSW,198,9.0,13.0,53,0.00,,,0.00,Wunderground v.1.15,2013-01-19 19:26:00,
2013-01-19 13:32:00,62.4,45.0,30.22,South,179,10.0,12.0,53,0.00,,,0.00,Wunderground v.1.15,2013-01-19 19:32:00,
2013-01-19 13:38:00,62.5,45.1,30.22,SSW,193,10.0,12.0,53,0.00,,,0.00,Wunderground v.1.15,2013-01-19 19:38:00,
2013-01-19 13:44:00,63.1,45.2,30.22,SW,224,9.0,12.0,52,0.00,,,0.00,Wunderground v.1.15,2013-01-19 19:44:00,
2013-01-19 13:54:00,63.3,43.8,30.21,SSW,200,9.0,12.0,49,0.00,,,0.00,Wunderground v.1.15,2013-01-19 19:54:00,
2013-01-19 14:00:00,63.8,44.3,30.21,SW,215,10.0,10.0,49,0.00,,,0.00,Wunderground v.1.15,2013-01-19 20:00:00,
2013-01-19 14:06:00,63.5,43.4,30.21,South,181,10.0,14.0,48,0.00,,,0.00,Wunderground v.1.15,2013-01-19 20:06:00,
2013-01-19 14:12:00,63.3,42.7,30.20,SW,222,11.0,12.0,47,0.00,,,0.00,Wunderground v.1.15,2013-01-19 20:12:00,
2013-01-19 14:18:00,63.7,43.6,30.20,South,188,9.0,12.0,48,0.00,,,0.00,Wunderground v.1.15,2013-01-19 20:18:00,
2013-01-19 14:24:00,63.0,43.0,30.20,SSE,150,10.0,15.0,48,0.00,,,0.00,Wunderground v.1.15,2013-01-19 20:24:00,
2013-01-19 14:30:00,63.4,43.4,30.20,SSE,165,10.0,10.0,48,0.00,,,0.00,Wunderground v.1.15,2013-01-19 20:30:00,
2013-01-19 14:36:00,63.5,43.4,30.19,South,186,9.0,12.0,48,0.00,,,0.00,Wunderground v.1.15,2013-01-19 20:36:00,
2013-01-19 14:42:00,64.2,44.6,30.19,SSE,147,9.0,12.0,49,0.00,,,0.00,Wunderground v.1.15,2013-01-19 20:42:00,
2013-01-19 14:48:00,64.0,43.4,30.19,South,183,10.0,13.0,47,0.00,,,0.00,Wunderground v.1.15,2013-01-19 20:48:00,
2013-01-19 14:54:00,63.9,42.7,30.19,ESE,122,12.0,13.0,46,0.00,,,0.00,Wunderground v.1.15,2013-01-19 20:54:00,
2013-01-19 15:00:00,63.8,42.6,30.19,SSE,163,11.0,12.0,46,0.00,,,0.00,Wunderground v.1.15,2013-01-19 21:00:00,
2013-01-19 15:06:00,64.1,42.9,30.19,SE,132,10.0,14.0,46,0.00,,,0.00,Wunderground v.1.15,2013-01-19 21:06:00,
2013-01-19 15:12:00,64.3,41.9,30.19,South,179,9.0,12.0,44,0.00,,,0.00,Wunderground v.1.15,2013-01-19 21:12:00,
2013-01-19 15:18:00,63.8,42.6,30.19,South,179,11.0,14.0,46,0.00,,,0.00,Wunderground v.1.15,2013-01-19 21:18:00,
2013-01-19 15:24:00,63.7,41.9,30.19,SSE,158,11.0,12.0,45,0.00,,,0.00,Wunderground v.1.15,2013-01-19 21:24:00,
2013-01-19 15:30:00,63.8,42.0,30.19,South,174,10.0,10.0,45,0.00,,,0.00,Wunderground v.1.15,2013-01-19 21:30:00,
2013-01-19 15:40:00,63.9,41.5,30.19,SSW,203,7.0,12.0,44,0.00,,,0.00,Wunderground v.1.15,2013-01-19 21:40:00,
2013-01-19 15:46:00,63.4,42.2,30.19,SW,219,6.0,12.0,46,0.00,,,0.00,Wunderground v.1.15,2013-01-19 21:46:00,
2013-01-19 15:52:00,62.8,42.3,30.19,South,186,7.0,12.0,47,0.00,,,0.00,Wunderground v.1.15,2013-01-19 21:52:00,
2013-01-19 15:58:00,63.4,42.2,30.18,SSW,210,9.0,14.0,46,0.00,,,0.00,Wunderground v.1.15,2013-01-19 21:58:00,
2013-01-19 16:06:00,64.2,43.5,30.18,SW,229,8.0,12.0,47,0.00,,,0.00,Wunderground v.1.15,2013-01-19 22:06:00,
2013-01-19 16:14:00,64.7,43.4,30.19,ESE,122,7.0,12.0,46,0.00,,,0.00,Wunderground v.1.15,2013-01-19 22:14:00,
2013-01-19 16:20:00,63.8,42.6,30.19,SSW,203,7.0,7.0,46,0.00,,,0.00,Wunderground v.1.15,2013-01-19 22:20:00,
2013-01-19 16:26:00,63.3,42.7,30.19,SE,139,7.0,12.0,47,0.00,,,0.00,Wunderground v.1.15,2013-01-19 22:26:00,
2013-01-19 16:32:00,62.7,42.7,30.19,SE,142,6.0,10.0,48,0.00,,,0.00,Wunderground v.1.15,2013-01-19 22:32:00,
2013-01-19 16:38:00,62.0,43.1,30.19,SSW,203,6.0,12.0,50,0.00,,,0.00,Wunderground v.1.15,2013-01-19 22:38:00,
2013-01-19 16:46:00,61.4,42.6,30.19,SSE,148,6.0,12.0,50,0.00,,,0.00,Wunderground v.1.15,2013-01-19 22:46:00,
2013-01-19 16:52:00,61.3,42.5,30.19,South,180,5.0,12.0,50,0.00,,,0.00,Wunderground v.1.15,2013-01-19 22:52:00,
2013-01-19 16:58:00,61.8,42.4,30.19,SSE,165,4.0,12.0,49,0.00,,,0.00,Wunderground v.1.15,2013-01-19 22:58:00,
2013-01-19 17:04:00,61.7,42.3,30.19,SSE,163,4.0,12.0,49,0.00,,,0.00,Wunderground v.1.15,2013-01-19 23:04:00,
2013-01-19 17:10:00,61.5,42.7,30.19,SSW,200,4.0,12.0,50,0.00,,,0.00,Wunderground v.1.15,2013-01-19 23:10:00,
2013-01-19 17:18:00,62.0,42.6,30.19,South,188,5.0,12.0,49,0.00,,,0.00,Wunderground v.1.15,2013-01-19 23:18:00,
2013-01-19 17:24:00,62.4,42.4,30.19,South,186,4.0,12.0,48,0.00,,,0.00,Wunderground v.1.15,2013-01-19 23:24:00,
2013-01-19 17:30:00,62.4,42.4,30.19,SSE,165,4.0,12.0,48,0.00,,,0.00,Wunderground v.1.15,2013-01-19 23:30:00,
2013-01-19 17:36:00,62.2,42.8,30.19,SSE,159,4.0,12.0,49,0.00,,,0.00,Wunderground v.1.15,2013-01-19 23:36:00,
2013-01-19 17:44:00,61.5,42.7,30.19,SSW,200,5.0,12.0,50,0.00,,,0.00,Wunderground v.1.15,2013-01-19 23:44:00,
2013-01-19 17:52:00,60.4,42.2,30.19,South,187,5.0,12.0,51,0.00,,,0.00,Wunderground v.1.15,2013-01-19 23:52:00,
2013-01-19 17:58:00,59.4,42.3,30.19,South,174,4.0,12.0,53,0.00,,,0.00,Wunderground v.1.15,2013-01-19 23:58:00,
2013-01-19 18:06:00,58.3,42.2,30.19,South,184,3.0,12.0,55,0.00,,,0.00,Wunderground v.1.15,2013-01-20 00:06:00,
2013-01-19 18:12:00,57.5,41.9,30.19,South,170,3.0,12.0,56,0.00,,,0.00,Wunderground v.1.15,2013-01-20 00:12:00,
2013-01-19 18:18:00,57.0,41.9,30.20,South,191,2.0,12.0,57,0.00,,,0.00,Wunderground v.1.15,2013-01-20 00:18:00,
2013-01-19 18:24:00,56.7,41.6,30.20,SSE,162,1.0,12.0,57,0.00,,,0.00,Wunderground v.1.15,2013-01-20 00:24:00,
2013-01-19 18:30:00,56.3,41.7,30.20,SSE,167,1.0,12.0,58,0.00,,,0.00,Wunderground v.1.15,2013-01-20 00:30:00,
2013-01-19 18:36:00,56.2,41.6,30.20,SSE,152,1.0,12.0,58,0.00,,,0.00,Wunderground v.1.15,2013-01-20 00:36:00,
2013-01-19 18:42:00,56.1,41.5,30.20,SE,145,1.0,12.0,58,0.00,,,0.00,Wunderground v.1.15,2013-01-20 00:42:00,
2013-01-19 18:48:00,55.9,41.3,30.20,SSE,154,1.0,12.0,58,0.00,,,0.00,Wunderground v.1.15,2013-01-20 00:48:00,
2013-01-19 18:54:00,55.6,41.5,30.20,SSE,158,1.0,12.0,59,0.00,,,0.00,Wunderground v.1.15,2013-01-20 00:54:00,
2013-01-19 19:04:00,55.2,41.1,30.21,SSE,160,1.0,12.0,59,0.00,,,0.00,Wunderground v.1.15,2013-01-20 01:04:00,
2013-01-19 19:10:00,55.2,41.1,30.21,SSE,160,1.0,12.0,59,0.00,,,0.00,Wunderground v.1.15,2013-01-20 01:10:00,
2013-01-19 19:18:00,54.8,41.2,30.21,SSE,155,3.0,12.0,60,0.00,,,0.00,Wunderground v.1.15,2013-01-20 01:18:00,
2013-01-19 19:24:00,54.8,41.2,30.22,SSE,165,3.0,12.0,60,0.00,,,0.00,Wunderground v.1.15,2013-01-20 01:24:00,
2013-01-19 19:30:00,54.4,41.2,30.22,SSE,148,3.0,3.0,61,0.00,,,0.00,Wunderground v.1.15,2013-01-20 01:30:00,
2013-01-19 19:36:00,54.1,40.9,30.22,SSE,162,3.0,12.0,61,0.00,,,0.00,Wunderground v.1.15,2013-01-20 01:36:00,
2013-01-19 19:42:00,54.2,41.0,30.22,SE,139,3.0,12.0,61,0.00,,,0.00,Wunderground v.1.15,2013-01-20 01:42:00,
2013-01-19 19:48:00,54.0,41.3,30.22,SSE,160,3.0,12.0,62,0.00,,,0.00,Wunderground v.1.15,2013-01-20 01:48:00,
2013-01-19 19:54:00,53.5,41.2,30.23,SE,145,3.0,12.0,63,0.00,,,0.00,Wunderground v.1.15,2013-01-20 01:54:00,
2013-01-19 20:00:00,53.5,41.2,30.23,SSE,158,2.0,2.0,63,0.00,,,0.00,Wunderground v.1.15,2013-01-20 02:00:00,
2013-01-19 20:06:00,53.3,41.0,30.23,SSE,148,2.0,12.0,63,0.00,,,0.00,Wunderground v.1.15,2013-01-20 02:06:00,
2013-01-19 20:12:00,52.9,41.0,30.23,SSE,162,2.0,12.0,64,0.00,,,0.00,Wunderground v.1.15,2013-01-20 02:12:00,
2013-01-19 20:18:00,52.4,41.0,30.23,SSE,155,2.0,12.0,65,0.00,,,0.00,Wunderground v.1.15,2013-01-20 02:18:00,
2013-01-19 20:24:00,52.4,41.0,30.24,SSE,150,2.0,12.0,65,0.00,,,0.00,Wunderground v.1.15,2013-01-20 02:24:00,
2013-01-19 20:30:00,52.6,41.2,30.24,SSE,159,2.0,12.0,65,0.00,,,0.00,Wunderground v.1.15,2013-01-20 02:30:00,
2013-01-19 20:36:00,52.4,41.4,30.24,SSW,192,3.0,12.0,66,0.00,,,0.00,Wunderground v.1.15,2013-01-20 02:36:00,
2013-01-19 20:42:00,52.3,41.3,30.24,SSE,160,3.0,12.0,66,0.00,,,0.00,Wunderground v.1.15,2013-01-20 02:42:00,
2013-01-19 20:48:00,52.4,41.4,30.24,SSE,150,3.0,12.0,66,0.00,,,0.00,Wunderground v.1.15,2013-01-20 02:48:00,
2013-01-19 20:54:00,52.6,41.2,30.24,SSE,156,3.0,12.0,65,0.00,,,0.00,Wunderground v.1.15,2013-01-20 02:54:00,
2013-01-19 21:00:00,52.4,41.4,30.24,SSE,153,4.0,4.0,66,0.00,,,0.00,Wunderground v.1.15,2013-01-20 03:00:00,
2013-01-19 21:06:00,52.1,41.1,30.24,SSE,162,4.0,12.0,66,0.00,,,0.00,Wunderground v.1.15,2013-01-20 03:06:00,
2013-01-19 21:12:00,52.2,41.2,30.25,South,191,4.0,12.0,66,0.00,,,0.00,Wunderground v.1.15,2013-01-20 03:12:00,
2013-01-19 21:18:00,51.9,41.3,30.25,SSE,148,4.0,12.0,67,0.00,,,0.00,Wunderground v.1.15,2013-01-20 03:18:00,
2013-01-19 21:24:00,51.6,41.0,30.25,SE,143,3.0,12.0,67,0.00,,,0.00,Wunderground v.1.15,2013-01-20 03:24:00,
2013-01-19 21:30:00,51.5,40.9,30.25,SE,133,2.0,12.0,67,0.00,,,0.00,Wunderground v.1.15,2013-01-20 03:30:00,
2013-01-19 21:38:00,51.3,40.7,30.25,SSE,153,2.0,12.0,67,0.00,,,0.00,Wunderground v.1.15,2013-01-20 03:38:00,
2013-01-19 21:44:00,51.1,40.9,30.26,SSE,150,3.0,12.0,68,0.00,,,0.00,Wunderground v.1.15,2013-01-20 03:44:00,
2013-01-19 21:50:00,51.0,40.8,30.26,SSE,157,3.0,12.0,68,0.00,,,0.00,Wunderground v.1.15,2013-01-20 03:50:00,
2013-01-19 21:56:00,51.1,40.9,30.26,SSE,156,3.0,12.0,68,0.00,,,0.00,Wunderground v.1.15,2013-01-20 03:56:00,
2013-01-19 22:02:00,51.4,40.8,30.26,SSE,159,3.0,12.0,67,0.00,,,0.00,Wunderground v.1.15,2013-01-20 04:02:00,
2013-01-19 22:08:00,51.5,40.9,30.25,SE,135,3.0,12.0,67,0.00,,,0.00,Wunderground v.1.15,2013-01-20 04:08:00,
2013-01-19 22:14:00,51.5,40.9,30.26,South,169,3.0,12.0,67,0.00,,,0.00,Wunderground v.1.15,2013-01-20 04:14:00,
2013-01-19 22:20:00,51.3,40.7,30.26,SSE,166,4.0,12.0,67,0.00,,,0.00,Wunderground v.1.15,2013-01-20 04:20:00,
2013-01-19 22:26:00,51.4,40.8,30.26,SSE,159,4.0,12.0,67,0.00,,,0.00,Wunderground v.1.15,2013-01-20 04:26:00,
2013-01-19 22:32:00,51.4,40.8,30.26,SE,128,4.0,12.0,67,0.00,,,0.00,Wunderground v.1.15,2013-01-20 04:32:00,
2013-01-19 22:38:00,51.6,41.0,30.26,SSE,160,3.0,12.0,67,0.00,,,0.00,Wunderground v.1.15,2013-01-20 04:38:00,
2013-01-19 22:44:00,51.6,40.6,30.26,SSW,200,3.0,12.0,66,0.00,,,0.00,Wunderground v.1.15,2013-01-20 04:44:00,
2013-01-19 22:50:00,51.6,40.6,30.27,SSE,156,3.0,3.0,66,0.00,,,0.00,Wunderground v.1.15,2013-01-20 04:50:00,
2013-01-19 22:56:00,51.3,40.7,30.26,South,170,3.0,12.0,67,0.00,,,0.00,Wunderground v.1.15,2013-01-20 04:56:00,
2013-01-19 23:00:00,51.2,40.6,30.26,South,172,3.0,12.0,67,0.00,,,0.00,Wunderground v.1.15,2013-01-20 05:00:00,
2013-01-19 23:06:00,50.8,40.6,30.26,South,174,4.0,12.0,68,0.00,,,0.00,Wunderground v.1.15,2013-01-20 05:06:00,
2013-01-19 23:08:00,50.7,40.5,30.26,SSE,156,4.0,12.0,68,0.00,,,0.00,Wunderground v.1.15,2013-01-20 05:08:00,
2013-01-19 23:10:00,50.6,40.4,30.26,SSE,155,4.0,12.0,68,0.00,,,0.00,Wunderground v.1.15,2013-01-20 05:10:00,
2013-01-19 23:14:00,50.5,40.7,30.26,SSE,162,4.0,12.0,69,0.00,,,0.00,Wunderground v.1.15,2013-01-20 05:14:00,
2013-01-19 23:20:00,50.7,40.5,30.26,SSE,148,4.0,12.0,68,0.00,,,0.00,Wunderground v.1.15,2013-01-20 05:20:00,
2013-01-19 23:26:00,50.8,40.6,30.26,SE,139,3.0,12.0,68,0.00,,,0.00,Wunderground v.1.15,2013-01-20 05:26:00,
2013-01-19 23:32:00,50.7,40.5,30.26,SSE,158,3.0,12.0,68,0.00,,,0.00,Wunderground v.1.15,2013-01-20 05:32:00,
2013-01-19 23:38:00,50.6,40.4,30.26,SSE,162,3.0,12.0,68,0.00,,,0.00,Wunderground v.1.15,2013-01-20 05:38:00,
2013-01-19 23:44:00,50.6,40.4,30.26,SSE,154,4.0,12.0,68,0.00,,,0.00,Wunderground v.1.15,2013-01-20 05:44:00,
2013-01-19 23:50:00,50.8,40.6,30.26,SSE,153,3.0,3.0,68,0.00,,,0.00,Wunderground v.1.15,2013-01-20 05:50:00,
2013-01-19 23:56:00,50.8,40.6,30.26,SE,136,3.0,12.0,68,0.00,,,0.00,Wunderground v.1.15,2013-01-20 05:56:00,